Terminal Aerodrome Forecast
Issued by NWS Tallahassee, FL

Home | Current Version | Previous Version | Text Only | Print | Product List | Glossary On
Versions: 1 2 3 4 5 6 7 8 9 10 11 12 13 14
000
FTUS42 KTAE 240900 AAA
TAFTLH
TAF AMD
KTLH 240909Z 2409/2506 00000KT 5SM BR SCT080
      TEMPO 2409/2412 1SM BR VV002
     FM241300 17007KT P6SM SCT040=

USA.gov is the U.S. government's official web portal to all federal, state and local government web resources and services.